createdAt,value
2023-01-13T00:00:24.044Z,3.51
2023-01-13T00:02:50.934Z,3.39
2023-01-13T00:05:17.879Z,3.32
2023-01-13T00:07:46.542Z,3.46
2023-01-13T00:10:13.374Z,3.45
2023-01-13T00:12:41.923Z,3.49
2023-01-13T00:15:10.060Z,3.45
2023-01-13T00:17:36.983Z,3.35
2023-01-13T00:20:04.081Z,3.30
2023-01-13T00:22:34.047Z,3.24
2023-01-13T00:25:01.667Z,3.27
2023-01-13T00:27:29.384Z,3.29
2023-01-13T00:29:56.274Z,3.30
2023-01-13T00:32:23.411Z,3.39
2023-01-13T00:34:50.355Z,3.34
2023-01-13T00:37:17.260Z,3.41
2023-01-13T00:39:44.333Z,3.51
2023-01-13T00:42:29.692Z,3.54
2023-01-13T00:44:56.722Z,3.44
2023-01-13T00:47:23.591Z,3.41
2023-01-13T00:49:50.545Z,3.34
2023-01-13T00:52:17.377Z,3.37
2023-01-13T00:54:44.277Z,3.29
2023-01-13T00:57:11.221Z,3.21
2023-01-13T00:59:38.030Z,3.19
2023-01-13T01:02:05.041Z,3.11
2023-01-13T01:04:31.991Z,3.09
2023-01-13T01:06:58.868Z,3.07
2023-01-13T01:09:32.733Z,3.12
2023-01-13T01:12:01.595Z,3.10
2023-01-13T01:14:28.512Z,3.10
2023-01-13T01:16:55.423Z,3.08
2023-01-13T01:19:22.231Z,3.14
2023-01-13T01:21:49.076Z,3.14
2023-01-13T01:24:16.834Z,3.22
2023-01-13T01:26:43.846Z,3.15
2023-01-13T01:29:13.913Z,3.16
2023-01-13T01:31:40.885Z,3.17
2023-01-13T01:34:07.723Z,3.12
2023-01-13T01:36:36.706Z,3.05
2023-01-13T01:39:04.466Z,2.97
2023-01-13T01:41:33.552Z,2.98
2023-01-13T01:44:08.188Z,2.99
2023-01-13T01:46:43.276Z,2.94
2023-01-13T01:49:32.705Z,2.86
2023-01-13T01:52:10.584Z,2.82
2023-01-13T01:54:40.442Z,2.81
2023-01-13T01:57:11.109Z,2.81
2023-01-13T01:59:39.085Z,2.86
2023-01-13T02:02:07.293Z,2.92
2023-01-13T02:04:39.318Z,2.87
2023-01-13T02:07:07.267Z,2.92
2023-01-13T02:09:36.627Z,2.84
2023-01-13T02:12:22.268Z,2.79
2023-01-13T02:14:49.132Z,2.76
2023-01-13T02:17:21.992Z,2.77
2023-01-13T02:20:16.950Z,2.75
2023-01-13T02:22:43.828Z,2.78
2023-01-13T02:25:10.584Z,2.71
2023-01-13T02:28:00.761Z,2.70
2023-01-13T02:31:13.226Z,2.61
2023-01-13T02:34:04.837Z,2.62
2023-01-13T02:36:47.964Z,2.64
2023-01-13T02:39:27.452Z,2.64
2023-01-13T02:42:40.561Z,2.58
2023-01-13T02:45:11.843Z,2.50
2023-01-13T02:47:41.497Z,2.60
2023-01-13T02:50:17.612Z,2.45
2023-01-13T02:53:08.749Z,2.46
2023-01-13T02:55:43.442Z,2.60
2023-01-13T02:58:15.735Z,2.55
2023-01-13T03:00:43.778Z,2.26
2023-01-13T03:03:10.715Z,2.24
2023-01-13T03:05:38.660Z,2.20
2023-01-13T03:08:19.666Z,2.10
2023-01-13T03:11:07.716Z,2.21
2023-01-13T03:13:45.545Z,2.17
2023-01-13T03:16:41.233Z,2.19
2023-01-13T03:19:08.089Z,2.28
2023-01-13T03:21:44.360Z,2.18
2023-01-13T03:24:39.155Z,2.18
2023-01-13T03:27:20.652Z,2.13
2023-01-13T03:29:59.344Z,1.98
2023-01-13T03:32:34.379Z,1.95
2023-01-13T03:35:16.880Z,1.93
2023-01-13T03:37:49.634Z,1.85
2023-01-13T03:40:24.767Z,1.89
2023-01-13T03:43:16.036Z,1.78
2023-01-13T03:45:44.928Z,1.82
2023-01-13T03:48:16.842Z,1.82
2023-01-13T03:50:54.182Z,1.86
2023-01-13T03:53:37.217Z,1.92
2023-01-13T03:56:22.894Z,1.80
2023-01-13T03:58:53.283Z,1.83
2023-01-13T04:01:35.483Z,1.84
2023-01-13T04:04:14.973Z,1.79
2023-01-13T04:07:02.341Z,1.72
2023-01-13T04:09:31.612Z,1.69
2023-01-13T04:12:22.543Z,1.73
2023-01-13T04:14:50.102Z,1.68
2023-01-13T04:17:17.467Z,1.74
2023-01-13T04:19:44.456Z,1.71
2023-01-13T04:22:11.337Z,1.71
2023-01-13T04:24:38.187Z,1.81
2023-01-13T04:27:05.075Z,1.88
2023-01-13T04:29:32.250Z,1.87
2023-01-13T04:31:59.055Z,1.75
2023-01-13T04:34:28.452Z,1.72
2023-01-13T04:36:55.447Z,1.91
2023-01-13T04:39:22.274Z,1.91
2023-01-13T04:41:58.296Z,1.77
2023-01-13T04:44:26.578Z,1.72
2023-01-13T04:46:53.747Z,1.72
2023-01-13T04:49:20.805Z,1.69
2023-01-13T04:51:47.658Z,1.87
2023-01-13T04:54:14.642Z,1.88
2023-01-13T04:56:42.555Z,1.93
2023-01-13T04:59:11.044Z,1.89
2023-01-13T05:01:38.623Z,1.86
2023-01-13T05:04:08.632Z,1.98
2023-01-13T05:06:35.510Z,1.89
2023-01-13T05:09:02.307Z,1.81
2023-01-13T05:11:47.882Z,1.86
2023-01-13T05:14:33.186Z,1.84
2023-01-13T05:17:03.758Z,1.92
2023-01-13T05:19:33.794Z,1.93
2023-01-13T05:22:20.231Z,1.80
2023-01-13T05:25:06.192Z,1.83
2023-01-13T05:27:33.437Z,1.86
2023-01-13T05:30:00.257Z,1.88
2023-01-13T05:32:30.417Z,1.93
2023-01-13T05:34:57.746Z,1.96
2023-01-13T05:37:25.989Z,1.98
2023-01-13T05:40:11.845Z,2.14
2023-01-13T05:42:57.631Z,2.13
2023-01-13T05:45:24.592Z,2.26
2023-01-13T05:47:51.620Z,2.20
2023-01-13T05:50:19.006Z,2.20
2023-01-13T05:52:45.917Z,2.28
2023-01-13T05:55:13.135Z,2.29
2023-01-13T05:57:39.951Z,2.28
2023-01-13T06:00:07.564Z,2.25
2023-01-13T06:02:40.381Z,2.31
2023-01-13T06:05:07.970Z,2.41
2023-01-13T06:07:34.806Z,2.43
2023-01-13T06:10:01.718Z,2.43
2023-01-13T06:12:28.579Z,2.30
2023-01-13T06:14:55.596Z,2.35
2023-01-13T06:17:22.451Z,2.40
2023-01-13T06:19:49.406Z,2.35
2023-01-13T06:22:26.207Z,2.35
2023-01-13T06:24:54.880Z,2.51
2023-01-13T06:27:23.202Z,2.54
2023-01-13T06:29:50.448Z,2.56
2023-01-13T06:32:29.752Z,2.60
2023-01-13T06:35:05.502Z,2.64
2023-01-13T06:37:34.152Z,2.56
2023-01-13T06:40:02.920Z,2.52
2023-01-13T06:42:51.788Z,2.64
2023-01-13T06:45:19.182Z,2.51
2023-01-13T06:47:46.015Z,2.56
2023-01-13T06:50:13.155Z,2.57
2023-01-13T06:52:40.196Z,2.52
2023-01-13T06:55:07.469Z,2.64
2023-01-13T06:57:34.320Z,2.73
2023-01-13T07:00:01.324Z,2.77
2023-01-13T07:02:28.516Z,3.12
2023-01-13T07:04:55.511Z,3.31
2023-01-13T07:07:22.320Z,3.24
2023-01-13T07:09:49.227Z,3.16
2023-01-13T07:12:16.099Z,3.03
2023-01-13T07:15:01.343Z,2.86
2023-01-13T07:17:28.313Z,3.21
2023-01-13T07:19:55.115Z,3.10
2023-01-13T07:22:22.072Z,3.05
2023-01-13T07:24:48.969Z,2.97
2023-01-13T07:27:15.972Z,3.03
2023-01-13T07:29:44.000Z,3.02
2023-01-13T07:32:10.908Z,3.00
2023-01-13T07:34:37.781Z,2.96
2023-01-13T07:37:04.701Z,2.96
2023-01-13T07:39:31.681Z,2.97
2023-01-13T07:42:17.392Z,3.03
2023-01-13T07:44:44.462Z,3.19
2023-01-13T07:47:11.431Z,3.25
2023-01-13T07:49:38.360Z,3.29
2023-01-13T07:52:05.481Z,3.17
2023-01-13T07:54:40.762Z,3.11
2023-01-13T07:57:08.629Z,3.16
2023-01-13T07:59:35.495Z,3.12
2023-01-13T08:02:02.636Z,3.11
2023-01-13T08:04:29.665Z,3.21
2023-01-13T08:06:56.666Z,3.44
2023-01-13T08:09:23.570Z,3.45
2023-01-13T08:12:13.753Z,3.43
2023-01-13T08:14:40.666Z,3.46
2023-01-13T08:17:09.222Z,3.75
2023-01-13T08:19:36.101Z,3.73
2023-01-13T08:22:02.929Z,3.66
2023-01-13T08:24:29.793Z,3.65
2023-01-13T08:26:56.674Z,3.72
2023-01-13T08:29:23.581Z,3.73
2023-01-13T08:31:50.360Z,3.77
2023-01-13T08:34:17.364Z,3.83
2023-01-13T08:36:44.643Z,4.22
2023-01-13T08:39:11.590Z,4.43
2023-01-13T08:41:57.159Z,4.18
2023-01-13T08:44:27.003Z,4.25
2023-01-13T08:46:54.645Z,4.22
2023-01-13T08:49:22.587Z,4.33
2023-01-13T08:51:49.719Z,4.12
2023-01-13T08:54:17.476Z,4.26
2023-01-13T08:56:45.707Z,4.40
2023-01-13T08:59:18.593Z,4.31
2023-01-13T09:01:45.934Z,4.55
2023-01-13T09:04:19.791Z,4.76
2023-01-13T09:06:48.025Z,4.96
2023-01-13T09:09:15.176Z,4.92
2023-01-13T09:12:05.921Z,5.23
2023-01-13T09:14:35.012Z,5.13
2023-01-13T09:17:01.958Z,4.85
2023-01-13T09:19:29.361Z,4.93
2023-01-13T09:21:57.261Z,5.11
2023-01-13T09:24:25.001Z,5.10
2023-01-13T09:26:52.435Z,5.18
2023-01-13T09:29:20.114Z,4.87
2023-01-13T09:31:47.468Z,4.69
2023-01-13T09:34:36.959Z,5.02
2023-01-13T09:37:05.939Z,4.97
2023-01-13T09:39:49.699Z,5.03
2023-01-13T09:42:51.701Z,4.81
2023-01-13T09:45:42.856Z,4.72
2023-01-13T09:48:15.515Z,4.52
2023-01-13T09:50:55.881Z,4.40
2023-01-13T09:53:32.729Z,4.69
2023-01-13T09:56:00.344Z,4.43
2023-01-13T09:58:27.565Z,4.81
2023-01-13T10:01:17.536Z,4.93
2023-01-13T10:03:44.661Z,5.01
2023-01-13T10:06:15.242Z,5.18
2023-01-13T10:08:44.137Z,5.22
2023-01-13T10:11:43.854Z,5.78
2023-01-13T10:14:32.344Z,6.45
2023-01-13T10:17:18.281Z,6.05
2023-01-13T10:19:50.941Z,5.67
2023-01-13T10:22:42.414Z,5.66
2023-01-13T10:25:25.437Z,5.93
2023-01-13T10:27:58.628Z,5.72
2023-01-13T10:30:40.349Z,5.90
2023-01-13T10:33:15.032Z,5.94
2023-01-13T10:36:00.123Z,6.01
2023-01-13T10:38:35.952Z,6.24
2023-01-13T10:41:21.166Z,6.42
2023-01-13T10:44:06.358Z,6.60
2023-01-13T10:46:50.231Z,6.67
2023-01-13T10:49:36.535Z,6.83
2023-01-13T10:52:24.003Z,6.90
2023-01-13T10:54:55.153Z,7.01
2023-01-13T10:57:27.724Z,7.28
2023-01-13T10:59:55.719Z,7.27
2023-01-13T11:02:29.729Z,7.10
2023-01-13T11:04:58.181Z,7.10
2023-01-13T11:07:40.978Z,7.29
2023-01-13T11:10:10.636Z,7.44
2023-01-13T11:13:14.314Z,7.64
2023-01-13T11:15:57.816Z,7.42
2023-01-13T11:18:37.907Z,7.74
2023-01-13T11:21:12.117Z,8.11
2023-01-13T11:23:49.185Z,8.30
2023-01-13T11:26:25.511Z,8.51
2023-01-13T11:29:08.438Z,8.40
2023-01-13T11:31:47.637Z,8.57
2023-01-13T11:34:28.760Z,8.42
2023-01-13T11:36:59.311Z,8.01
2023-01-13T11:39:44.296Z,8.53
2023-01-13T11:42:24.167Z,8.97
2023-01-13T11:44:59.358Z,9.08
2023-01-13T11:47:27.427Z,8.50
2023-01-13T11:49:54.893Z,8.40
2023-01-13T11:52:24.730Z,8.84
2023-01-13T11:54:59.304Z,8.63
2023-01-13T11:57:50.645Z,8.69
2023-01-13T12:00:56.357Z,8.98
2023-01-13T12:03:43.636Z,9.07
2023-01-13T12:06:33.587Z,8.91
2023-01-13T12:09:37.341Z,9.22
2023-01-13T12:12:19.947Z,8.86
2023-01-13T12:15:03.145Z,8.70
2023-01-13T12:17:54.861Z,8.92
2023-01-13T12:20:24.680Z,8.85
2023-01-13T12:22:55.179Z,8.85
2023-01-13T12:25:34.494Z,8.87
2023-01-13T12:28:05.039Z,8.48
2023-01-13T12:30:37.776Z,8.78
2023-01-13T12:33:27.487Z,8.61
2023-01-13T12:36:02.654Z,8.57
2023-01-13T12:38:37.437Z,8.44
2023-01-13T12:41:33.624Z,8.60
2023-01-13T12:44:20.443Z,8.54
2023-01-13T12:46:53.431Z,8.76
2023-01-13T12:49:24.627Z,8.70
2023-01-13T12:51:57.320Z,8.52
2023-01-13T12:54:43.559Z,8.69
2023-01-13T12:57:25.012Z,8.33
2023-01-13T13:00:16.728Z,8.45
2023-01-13T13:03:03.796Z,8.34
2023-01-13T13:05:39.874Z,8.35
2023-01-13T13:08:07.107Z,8.48
2023-01-13T13:10:40.774Z,8.61
2023-01-13T13:13:20.664Z,8.67
2023-01-13T13:15:51.739Z,8.82
2023-01-13T13:18:19.679Z,8.80
2023-01-13T13:21:09.267Z,8.81
2023-01-13T13:23:48.467Z,8.95
2023-01-13T13:26:20.244Z,8.86
2023-01-13T13:29:01.929Z,8.84
2023-01-13T13:32:08.734Z,8.82
2023-01-13T13:34:43.553Z,8.74
2023-01-13T13:37:25.173Z,8.60
2023-01-13T13:40:11.334Z,8.64
2023-01-13T13:43:10.749Z,8.32
2023-01-13T13:45:56.475Z,8.12
2023-01-13T13:48:34.411Z,8.21
2023-01-13T13:51:05.958Z,8.01
2023-01-13T13:53:41.839Z,8.00
2023-01-13T13:56:19.175Z,8.15
2023-01-13T13:58:48.369Z,8.21
2023-01-13T14:01:37.874Z,8.03
2023-01-13T14:04:14.653Z,7.96
2023-01-13T14:07:01.839Z,7.76
2023-01-13T14:09:39.092Z,7.80
2023-01-13T14:12:15.237Z,7.52
2023-01-13T14:14:46.816Z,7.55
2023-01-13T14:17:27.453Z,7.60
2023-01-13T14:20:08.517Z,7.58
2023-01-13T14:22:35.799Z,7.71
2023-01-13T14:25:02.748Z,7.68
2023-01-13T14:27:30.600Z,7.57
2023-01-13T14:30:00.385Z,7.78
2023-01-13T14:32:35.447Z,7.61
2023-01-13T14:35:06.384Z,7.50
2023-01-13T14:37:38.995Z,7.51
2023-01-13T14:40:06.897Z,7.50
2023-01-13T14:42:35.693Z,7.58
2023-01-13T14:45:03.507Z,7.76
2023-01-13T14:47:34.147Z,7.53
2023-01-13T14:50:34.038Z,7.50
2023-01-13T14:53:01.752Z,7.61
2023-01-13T14:55:40.529Z,7.51
2023-01-13T14:58:22.472Z,7.25
2023-01-13T15:00:51.130Z,7.33
2023-01-13T15:03:20.963Z,7.31
2023-01-13T15:05:52.542Z,7.35
2023-01-13T15:08:26.173Z,7.39
2023-01-13T15:11:00.086Z,7.34
2023-01-13T15:13:35.917Z,7.39
2023-01-13T15:16:13.934Z,7.34
2023-01-13T15:18:41.414Z,7.40
2023-01-13T15:21:09.666Z,7.38
2023-01-13T15:23:38.608Z,7.34
2023-01-13T15:26:15.255Z,7.36
2023-01-13T15:28:42.200Z,7.44
2023-01-13T15:31:09.687Z,7.23
2023-01-13T15:33:36.531Z,7.17
2023-01-13T15:36:03.522Z,7.28
2023-01-13T15:38:30.488Z,7.26
2023-01-13T15:40:57.375Z,7.29
2023-01-13T15:43:43.140Z,7.30
2023-01-13T15:46:38.123Z,7.30
2023-01-13T15:49:34.410Z,7.18
2023-01-13T15:52:21.614Z,7.35
2023-01-13T15:54:49.188Z,7.24
2023-01-13T15:57:24.977Z,7.15
2023-01-13T15:59:55.425Z,7.33
2023-01-13T16:02:23.669Z,7.19
2023-01-13T16:04:53.910Z,7.32
2023-01-13T16:07:22.653Z,7.43
2023-01-13T16:09:49.735Z,7.23
2023-01-13T16:15:22.591Z,7.24
2023-01-13T16:17:58.071Z,7.23
2023-01-13T16:20:24.943Z,7.26
2023-01-13T16:22:52.859Z,7.25
2023-01-13T16:25:25.429Z,7.26
2023-01-13T16:27:53.016Z,7.23
2023-01-13T16:30:35.109Z,7.25
2023-01-13T16:33:02.849Z,7.14
2023-01-13T16:35:32.078Z,7.30
2023-01-13T16:38:00.037Z,7.40
2023-01-13T16:40:33.699Z,7.27
2023-01-13T16:43:03.480Z,7.20
2023-01-13T16:45:31.675Z,7.13
2023-01-13T16:47:58.533Z,7.14
2023-01-13T16:50:36.359Z,7.09
2023-01-13T16:53:04.768Z,7.16
2023-01-13T16:55:31.738Z,7.17
2023-01-13T16:57:58.788Z,7.17
2023-01-13T17:00:25.685Z,7.16
2023-01-13T17:02:52.535Z,7.05
2023-01-13T17:05:19.676Z,7.01
2023-01-13T17:07:47.868Z,7.02
2023-01-13T17:10:23.319Z,6.95
2023-01-13T17:12:50.740Z,7.02
2023-01-13T17:15:19.320Z,7.02
2023-01-13T17:17:48.902Z,6.96
2023-01-13T17:20:16.457Z,6.99
2023-01-13T17:22:45.606Z,6.96
2023-01-13T17:25:14.882Z,7.01
2023-01-13T17:27:42.348Z,7.05
2023-01-13T17:30:11.465Z,6.97
2023-01-13T17:32:38.534Z,6.98
2023-01-13T17:35:07.840Z,7.04
2023-01-13T17:37:35.273Z,7.02
2023-01-13T17:40:02.276Z,7.10
2023-01-13T17:42:29.799Z,7.11
2023-01-13T17:44:56.694Z,7.10
2023-01-13T17:47:24.725Z,7.03
2023-01-13T17:49:51.600Z,7.05
2023-01-13T17:52:18.520Z,7.08
2023-01-13T17:54:45.523Z,7.10
2023-01-13T17:57:12.546Z,7.17
2023-01-13T17:59:41.511Z,7.14
2023-01-13T18:02:11.941Z,7.08
2023-01-13T18:04:38.866Z,7.12
2023-01-13T18:07:06.437Z,7.10
2023-01-13T18:09:33.550Z,7.05
2023-01-13T18:12:00.831Z,7.01
2023-01-13T18:14:28.308Z,7.08
2023-01-13T18:16:55.407Z,7.04
2023-01-13T18:19:40.851Z,7.05
2023-01-13T18:22:31.201Z,7.15
2023-01-13T18:25:16.728Z,7.18
2023-01-13T18:27:43.675Z,7.17
2023-01-13T18:30:12.098Z,7.20
2023-01-13T18:32:39.096Z,7.21
2023-01-13T18:35:10.571Z,7.29
2023-01-13T18:37:40.540Z,7.32
2023-01-13T18:40:09.821Z,7.27
2023-01-13T18:42:54.728Z,7.35
2023-01-13T18:45:30.795Z,7.32
2023-01-13T18:48:00.871Z,7.34
2023-01-13T18:50:28.423Z,7.31
2023-01-13T18:52:56.112Z,7.31
2023-01-13T18:55:24.015Z,7.31
2023-01-13T18:57:51.520Z,7.19
2023-01-13T19:00:20.177Z,7.20
2023-01-13T19:02:48.019Z,7.17
2023-01-13T19:05:15.055Z,7.15
2023-01-13T19:07:43.566Z,7.12
2023-01-13T19:10:13.051Z,7.17
2023-01-13T19:12:39.978Z,7.14
2023-01-13T19:15:07.633Z,7.09
2023-01-13T19:17:35.531Z,7.04
2023-01-13T19:20:04.881Z,7.07
2023-01-13T19:22:34.294Z,7.01
2023-01-13T19:25:02.360Z,7.03
2023-01-13T19:27:30.388Z,6.88
2023-01-13T19:30:00.635Z,7.13
2023-01-13T19:32:28.430Z,6.97
2023-01-13T19:34:59.362Z,6.98
2023-01-13T19:37:31.034Z,6.89
2023-01-13T19:40:00.696Z,6.95
2023-01-13T19:42:46.513Z,6.87
2023-01-13T19:45:31.487Z,6.96
2023-01-13T19:48:02.027Z,6.89
2023-01-13T19:50:29.278Z,6.83
2023-01-13T19:52:56.139Z,6.89
2023-01-13T19:55:23.453Z,6.82
2023-01-13T19:57:50.585Z,6.83
2023-01-13T20:00:20.642Z,6.90
2023-01-13T20:02:49.673Z,6.88
2023-01-13T20:05:21.499Z,6.88
2023-01-13T20:07:50.103Z,6.90
2023-01-13T20:10:19.160Z,6.98
2023-01-13T20:12:46.079Z,7.02
2023-01-13T20:15:13.086Z,7.01
2023-01-13T20:17:41.591Z,7.04
2023-01-13T20:20:09.947Z,7.06
2023-01-13T20:22:38.520Z,7.13
2023-01-13T20:25:05.794Z,7.12
2023-01-13T20:27:32.720Z,7.14
2023-01-13T20:29:59.635Z,7.11
2023-01-13T20:32:26.539Z,7.21
2023-01-13T20:34:53.578Z,7.40
2023-01-13T20:37:20.533Z,7.31
2023-01-13T20:39:48.241Z,7.28
2023-01-13T20:42:30.374Z,7.35
2023-01-13T20:45:00.056Z,7.42
2023-01-13T20:47:28.435Z,7.21
2023-01-13T20:49:55.346Z,7.32
2023-01-13T20:52:22.379Z,7.29
2023-01-13T20:54:49.310Z,7.23
2023-01-13T20:57:16.245Z,7.25
2023-01-13T20:59:43.149Z,7.25
2023-01-13T21:02:15.052Z,7.29
2023-01-13T21:04:42.325Z,7.29
2023-01-13T21:07:10.138Z,7.35
2023-01-13T21:09:37.248Z,7.40
2023-01-13T21:12:23.329Z,7.39
2023-01-13T21:15:08.888Z,7.36
2023-01-13T21:17:55.364Z,7.37
2023-01-13T21:20:22.521Z,7.42
2023-01-13T21:22:49.665Z,7.54
2023-01-13T21:25:18.316Z,7.44
2023-01-13T21:27:45.208Z,7.34
2023-01-13T21:30:15.022Z,7.34
2023-01-13T21:32:43.632Z,7.34
2023-01-13T21:35:11.097Z,7.21
2023-01-13T21:37:38.939Z,7.10
2023-01-13T21:40:30.211Z,7.05
2023-01-13T21:43:17.814Z,6.96
2023-01-13T21:46:05.553Z,6.82
2023-01-13T21:48:32.683Z,7.00
2023-01-13T21:51:01.401Z,7.10
2023-01-13T21:53:28.275Z,7.04
2023-01-13T21:55:55.116Z,7.05
2023-01-13T21:58:22.036Z,7.05
2023-01-13T22:00:50.008Z,7.01
2023-01-13T22:03:18.832Z,7.03
2023-01-13T22:05:46.409Z,6.93
2023-01-13T22:11:02.802Z,6.91
2023-01-13T22:13:48.384Z,6.99
2023-01-13T22:16:15.645Z,6.96
2023-01-13T22:18:42.588Z,6.90
2023-01-13T22:21:09.711Z,6.96
2023-01-13T22:23:36.828Z,6.94
2023-01-13T22:26:05.155Z,6.77
2023-01-13T22:28:40.111Z,6.70
2023-01-13T22:31:18.447Z,6.64
2023-01-13T22:33:48.515Z,6.63
2023-01-13T22:36:16.463Z,6.63
2023-01-13T22:38:43.266Z,6.66
2023-01-13T22:41:10.878Z,6.66
2023-01-13T22:43:38.571Z,6.73
2023-01-13T22:46:11.565Z,6.84
2023-01-13T22:48:39.603Z,6.81
2023-01-13T22:51:17.073Z,6.88
2023-01-13T22:53:44.071Z,6.77
2023-01-13T22:56:18.031Z,6.76
2023-01-13T22:58:45.081Z,6.87
2023-01-13T23:01:17.362Z,6.79
2023-01-13T23:03:48.385Z,6.85
2023-01-13T23:06:18.315Z,6.78
2023-01-13T23:08:46.244Z,6.84
2023-01-13T23:11:16.716Z,6.79
2023-01-13T23:13:44.130Z,6.81
2023-01-13T23:16:14.801Z,6.91
2023-01-13T23:18:51.006Z,6.87
2023-01-13T23:21:21.100Z,6.99
2023-01-13T23:23:48.419Z,7.06
2023-01-13T23:26:16.311Z,6.91
2023-01-13T23:28:43.525Z,6.84
2023-01-13T23:31:15.896Z,6.73
2023-01-13T23:33:44.065Z,6.82
2023-01-13T23:36:14.721Z,6.85
2023-01-13T23:38:42.339Z,6.53
2023-01-13T23:41:12.219Z,6.51
2023-01-13T23:43:39.261Z,6.44
2023-01-13T23:46:11.684Z,6.33
2023-01-13T23:48:38.747Z,6.44
2023-01-13T23:51:08.707Z,6.24
2023-01-13T23:53:40.437Z,6.43
2023-01-13T23:56:11.369Z,6.54
2023-01-13T23:58:38.221Z,6.41
